Time;durP1;ratioP1;P1;durP2;ratioP2;P2;SDS_P1;SDS_P2;PMS_P1;PMS_P2;Temp;Humidity;BMP_temperature;BMP_pressure;BME280_temperature;BME280_humidity;BME280_pressure;Samples;Min_cycle;Max_cycle;Signal;HPM_P1;HPM_P2
2021/08/01 00:01:44;;;;;;;4.45;4.05;;;22.60;61.00;;;;;;5077187;28;20183;-80
2021/08/01 00:04:11;;;;;;;4.43;4.03;;;22.60;61.00;;;;;;4993069;28;20655;-80
2021/08/01 00:06:37;;;;;;;4.68;4.25;;;22.70;61.00;;;;;;4991832;28;20182;-80
2021/08/01 00:09:07;;;;;;;4.70;4.30;;;22.70;61.10;;;;;;5008899;28;20542;-80
2021/08/01 00:11:35;;;;;;;5.88;4.60;;;22.60;61.00;;;;;;4993134;28;20210;-80
2021/08/01 00:14:05;;;;;;;4.93;4.45;;;22.70;61.10;;;;;;5025929;28;20155;-80
2021/08/01 00:16:35;;;;;;;4.72;4.32;;;22.60;61.00;;;;;;5008576;28;20183;-80
2021/08/01 00:19:02;;;;;;;4.78;4.28;;;22.60;61.00;;;;;;5008898;28;20201;-80
2021/08/01 00:21:31;;;;;;;4.55;4.07;;;22.60;61.00;;;;;;5076846;28;20238;-80
2021/08/01 00:23:58;;;;;;;5.10;4.20;;;22.60;61.00;;;;;;5008845;28;20182;-80
2021/08/01 00:26:28;;;;;;;4.50;4.10;;;22.70;61.10;;;;;;5008967;28;20193;-80
2021/08/01 00:28:57;;;;;;;4.38;3.97;;;22.60;61.00;;;;;;5025239;28;20201;-80
2021/08/01 00:31:28;;;;;;;4.72;4.30;;;22.60;61.10;;;;;;5024853;28;20668;-80
2021/08/01 00:33:57;;;;;;;4.78;4.28;;;22.60;61.10;;;;;;4992173;28;20286;-80
2021/08/01 00:36:34;;;;;;;4.50;4.10;;;22.60;61.20;;;;;;5010489;28;20171;-80
2021/08/01 00:39:00;;;;;;;4.85;4.35;;;22.60;61.20;;;;;;5008486;28;20218;-80
2021/08/01 00:41:26;;;;;;;4.40;4.00;;;22.70;61.20;;;;;;5010041;28;20634;-80
2021/08/01 00:43:53;;;;;;;4.60;4.20;;;22.60;61.20;;;;;;5026427;28;20166;-80
2021/08/01 00:46:23;;;;;;;5.32;4.82;;;22.60;61.10;;;;;;5010094;28;20163;-80
2021/08/01 00:48:57;;;;;;;4.68;4.20;;;22.50;61.20;;;;;;5025296;28;20197;-80
2021/08/01 00:51:22;;;;;;;4.55;4.15;;;22.60;61.20;;;;;;5008727;28;20175;-80
2021/08/01 00:53:53;;;;;;;4.90;4.25;;;22.60;61.10;;;;;;5009265;28;20158;-80
2021/08/01 00:56:18;;;;;;;5.03;4.53;;;22.60;61.20;;;;;;4992401;28;20238;-80
2021/08/01 00:58:46;;;;;;;4.47;4.07;;;22.60;61.20;;;;;;5025085;28;20240;-80
2021/08/01 01:01:18;;;;;;;4.90;4.40;;;22.60;61.20;;;;;;5008465;28;20190;-80
2021/08/01 01:04:05;;;;;;;5.00;4.30;;;22.60;61.30;;;;;;5008753;28;20236;-80
2021/08/01 01:06:36;;;;;;;4.30;3.90;;;22.60;61.30;;;;;;5025241;28;20662;-80
2021/08/01 01:09:08;;;;;;;4.97;4.47;;;22.60;61.20;;;;;;5013178;28;20191;-80
2021/08/01 01:11:37;;;;;;;4.95;4.43;;;22.60;61.30;;;;;;5063334;28;20187;-80
2021/08/01 01:14:09;;;;;;;5.05;4.55;;;22.60;61.30;;;;;;5063811;28;20175;-80
2021/08/01 01:16:40;;;;;;;5.18;4.68;;;22.60;61.30;;;;;;5011913;28;20238;-80
2021/08/01 01:19:14;;;;;;;4.07;3.67;;;22.60;61.30;;;;;;4995847;28;20203;-80
2021/08/01 01:22:02;;;;;;;4.53;4.13;;;22.60;61.30;;;;;;5078645;28;20249;-80
2021/08/01 01:24:34;;;;;;;4.68;4.28;;;22.60;61.30;;;;;;5014985;28;20191;-81
2021/08/01 01:27:13;;;;;;;4.63;4.20;;;22.60;61.30;;;;;;5011577;28;20179;-79
2021/08/01 01:29:45;;;;;;;4.70;4.30;;;22.60;61.40;;;;;;5012636;28;20253;-80
2021/08/01 01:32:19;;;;;;;4.82;4.32;;;22.60;61.30;;;;;;5012364;28;20158;-80
2021/08/01 01:34:57;;;;;;;5.20;4.70;;;22.60;62.20;;;;;;4995482;28;20273;-80
2021/08/01 01:37:30;;;;;;;4.90;4.40;;;22.60;61.40;;;;;;5013651;28;20213;-80
2021/08/01 01:39:59;;;;;;;5.20;4.65;;;22.60;61.40;;;;;;5012129;28;20205;-80
2021/08/01 01:42:29;;;;;;;5.00;4.28;;;22.70;61.40;;;;;;5011678;28;20231;-81
2021/08/01 01:45:01;;;;;;;4.65;4.25;;;22.60;61.40;;;;;;5027894;28;20243;-80
2021/08/01 01:47:40;;;;;;;4.85;4.30;;;22.60;61.40;;;;;;5046250;28;20214;-80
2021/08/01 01:50:10;;;;;;;4.63;4.20;;;22.60;61.40;;;;;;5010702;28;20197;-80
2021/08/01 01:52:38;;;;;;;4.70;4.20;;;22.60;61.40;;;;;;4994967;28;20187;-80
2021/08/01 01:55:10;;;;;;;4.95;4.45;;;22.60;61.40;;;;;;5011639;28;20187;-80
2021/08/01 01:57:41;;;;;;;4.90;4.40;;;22.60;61.50;;;;;;4994699;28;20210;-80
2021/08/01 02:00:08;;;;;;;4.65;4.15;;;22.60;61.40;;;;;;5062913;28;20184;-80
2021/08/01 02:02:39;;;;;;;5.20;4.32;;;22.60;61.40;;;;;;5011193;28;20174;-80
2021/08/01 02:05:10;;;;;;;4.43;4.03;;;22.60;61.40;;;;;;5010857;28;20196;-80
2021/08/01 02:07:36;;;;;;;4.47;4.07;;;22.60;61.40;;;;;;5026472;28;20223;-80
2021/08/01 02:10:09;;;;;;;4.53;4.13;;;22.60;61.50;;;;;;4988637;28;20179;-80
2021/08/01 02:12:38;;;;;;;6.28;4.80;;;22.60;61.60;;;;;;4987787;28;20180;-80
2021/08/01 02:15:08;;;;;;;4.53;4.05;;;22.60;61.50;;;;;;5004633;28;20160;-80
2021/08/01 02:17:49;;;;;;;5.10;4.57;;;22.60;61.50;;;;;;5004336;28;20565;-80
2021/08/01 02:20:20;;;;;;;4.97;4.47;;;22.60;61.60;;;;;;4988452;28;20207;-80
2021/08/01 02:22:46;;;;;;;4.57;4.10;;;22.50;61.50;;;;;;4971823;28;20658;-80
2021/08/01 02:25:13;;;;;;;4.30;3.90;;;22.50;61.50;;;;;;5004574;28;20171;-80
2021/08/01 02:27:43;;;;;;;4.88;4.47;;;22.60;61.60;;;;;;5005150;28;20212;-80
2021/08/01 02:30:13;;;;;;;4.70;4.20;;;22.60;61.60;;;;;;4987618;28;20208;-80
2021/08/01 02:32:39;;;;;;;4.82;4.32;;;22.50;61.60;;;;;;4971484;28;20192;-80
2021/08/01 02:35:05;;;;;;;5.05;4.55;;;22.50;61.60;;;;;;5003584;28;20171;-80
2021/08/01 02:37:35;;;;;;;5.43;4.50;;;22.60;61.60;;;;;;5004396;28;20202;-80
2021/08/01 02:40:07;;;;;;;4.85;4.35;;;22.50;61.60;;;;;;5055950;28;20180;-80
2021/08/01 02:42:36;;;;;;;5.03;4.53;;;22.60;61.60;;;;;;4987220;28;20197;-80
2021/08/01 02:45:03;;;;;;;4.95;4.45;;;22.60;61.60;;;;;;5004183;28;20164;-80
2021/08/01 02:47:31;;;;;;;5.40;4.68;;;22.60;61.60;;;;;;5004430;28;20168;-80
2021/08/01 02:50:03;;;;;;;4.45;4.05;;;22.50;61.60;;;;;;4987573;28;20160;-80
2021/08/01 02:52:32;;;;;;;5.05;4.53;;;22.60;61.60;;;;;;4987940;28;20188;-80
2021/08/01 02:55:02;;;;;;;4.18;3.78;;;22.50;61.70;;;;;;5004209;28;20168;-80
2021/08/01 02:57:35;;;;;;;4.88;4.30;;;22.50;61.60;;;;;;4971049;28;20219;-81
2021/08/01 03:00:02;;;;;;;5.15;4.40;;;22.50;61.60;;;;;;4971533;28;20194;-80
2021/08/01 03:02:28;;;;;;;5.30;4.45;;;22.50;61.60;;;;;;5004164;28;20221;-80
2021/08/01 03:04:59;;;;;;;4.63;4.10;;;22.50;61.60;;;;;;5005106;28;20206;-80
2021/08/01 03:07:25;;;;;;;4.50;4.10;;;22.50;61.70;;;;;;5012814;28;20223;-80
2021/08/01 03:09:55;;;;;;;4.50;4.10;;;22.60;61.70;;;;;;5073252;28;20172;-80
2021/08/01 03:12:25;;;;;;;4.78;4.32;;;22.50;61.60;;;;;;5072492;28;20675;-80
2021/08/01 03:14:51;;;;;;;4.90;4.40;;;22.50;61.70;;;;;;5105908;28;20248;-80
2021/08/01 03:17:18;;;;;;;5.68;4.40;;;22.50;61.70;;;;;;5073047;28;20216;-80
2021/08/01 03:19:47;;;;;;;4.80;4.30;;;22.50;61.60;;;;;;5106763;28;20156;-80
2021/08/01 03:22:15;;;;;;;4.50;4.10;;;22.50;61.60;;;;;;5089314;28;20173;-80
2021/08/01 03:24:46;;;;;;;4.60;4.15;;;22.50;61.60;;;;;;5072421;28;20204;-80
2021/08/01 03:27:13;;;;;;;4.60;4.20;;;22.50;61.60;;;;;;5072414;28;20183;-80
2021/08/01 03:29:44;;;;;;;5.75;4.30;;;22.50;61.60;;;;;;5105554;28;20562;-80
2021/08/01 03:32:14;;;;;;;4.90;4.40;;;22.50;61.60;;;;;;5105644;28;20181;-80
2021/08/01 03:34:41;;;;;;;4.72;4.28;;;22.50;61.70;;;;;;5088747;28;20513;-80
2021/08/01 03:37:08;;;;;;;5.10;4.60;;;22.60;61.70;;;;;;5070849;28;20204;-80
2021/08/01 03:39:37;;;;;;;4.70;4.20;;;22.50;61.70;;;;;;5105306;28;20181;-80
2021/08/01 03:42:07;;;;;;;4.70;4.30;;;22.50;61.70;;;;;;5105445;28;20188;-80
2021/08/01 03:44:37;;;;;;;4.60;4.20;;;22.50;61.70;;;;;;5105228;28;20180;-80
2021/08/01 03:47:04;;;;;;;4.80;4.30;;;22.50;61.70;;;;;;5088545;28;20212;-80
2021/08/01 03:49:31;;;;;;;4.65;4.22;;;22.50;61.70;;;;;;5087959;28;20187;-80
2021/08/01 03:51:58;;;;;;;4.88;4.30;;;22.50;61.80;;;;;;5088189;28;20189;-80
2021/08/01 03:54:29;;;;;;;5.00;4.50;;;22.50;61.70;;;;;;5105264;28;20172;-80
2021/08/01 03:56:56;;;;;;;5.15;4.47;;;22.50;61.70;;;;;;5105236;28;20180;-80
2021/08/01 03:59:26;;;;;;;5.10;4.35;;;22.50;61.70;;;;;;5104645;28;20195;-80
2021/08/01 04:01:57;;;;;;;4.70;4.30;;;22.50;61.70;;;;;;5088590;28;20176;-80
2021/08/01 04:04:25;;;;;;;5.43;4.60;;;22.50;61.70;;;;;;5104841;28;20531;-80
2021/08/01 04:06:50;;;;;;;4.47;4.07;;;22.50;61.70;;;;;;5079245;28;20191;-80
2021/08/01 04:09:18;;;;;;;4.82;4.32;;;22.50;61.70;;;;;;5009846;28;20167;-80
2021/08/01 04:11:49;;;;;;;4.55;4.15;;;22.50;61.70;;;;;;5093878;28;20653;-80
2021/08/01 04:14:19;;;;;;;5.10;4.60;;;22.60;62.70;;;;;;5061147;28;20182;-80
2021/08/01 04:16:46;;;;;;;4.47;4.07;;;22.50;61.70;;;;;;5009100;28;20178;-80
2021/08/01 04:19:13;;;;;;;4.82;4.43;;;22.50;61.80;;;;;;5009574;28;20187;-80
2021/08/01 04:21:42;;;;;;;4.57;4.15;;;22.50;61.80;;;;;;5076946;28;20187;-80
2021/08/01 04:24:09;;;;;;;4.88;4.20;;;22.50;61.80;;;;;;5026288;28;20147;-80
2021/08/01 04:26:39;;;;;;;4.35;3.95;;;22.50;61.70;;;;;;5009410;28;20185;-80
2021/08/01 04:29:05;;;;;;;5.05;4.40;;;22.50;61.60;;;;;;4992870;28;20186;-80
2021/08/01 04:31:35;;;;;;;4.65;4.25;;;22.50;61.70;;;;;;4993118;28;20170;-80
2021/08/01 04:34:11;;;;;;;4.38;3.97;;;22.60;61.70;;;;;;5077283;28;20239;-80
2021/08/01 04:36:38;;;;;;;4.55;4.15;;;22.50;61.60;;;;;;5008678;28;20182;-80
2021/08/01 04:39:04;;;;;;;4.90;4.35;;;22.60;61.70;;;;;;5076556;28;20214;-80
2021/08/01 04:41:31;;;;;;;4.70;4.20;;;22.50;61.70;;;;;;5077667;28;20203;-80
2021/08/01 04:43:57;;;;;;;4.72;4.22;;;22.50;61.70;;;;;;5013473;28;20188;-80
2021/08/01 04:46:27;;;;;;;4.75;4.15;;;22.60;61.70;;;;;;5046926;28;20152;-80
2021/08/01 04:49:00;;;;;;;5.00;4.50;;;22.60;61.70;;;;;;5012657;28;20183;-80
2021/08/01 04:51:31;;;;;;;4.88;4.47;;;22.60;61.70;;;;;;4995722;28;20174;-80
2021/08/01 04:53:57;;;;;;;4.82;4.32;;;22.60;61.70;;;;;;5081055;28;20580;-80
2021/08/01 04:56:28;;;;;;;5.15;4.30;;;22.60;61.70;;;;;;5028894;28;20199;-80
2021/08/01 04:58:54;;;;;;;4.72;4.32;;;22.60;61.70;;;;;;5011349;28;20218;-80
2021/08/01 05:01:20;;;;;;;4.80;4.30;;;22.60;61.70;;;;;;5046840;28;20159;-80
2021/08/01 05:03:51;;;;;;;5.00;4.50;;;22.50;61.60;;;;;;5012372;28;20155;-79
2021/08/01 05:06:26;;;;;;;4.15;3.75;;;22.50;61.70;;;;;;5011545;28;20178;-79
2021/08/01 05:08:53;;;;;;;4.60;4.20;;;22.50;61.70;;;;;;4995444;28;20290;-80
2021/08/01 05:11:19;;;;;;;4.93;4.43;;;22.50;61.70;;;;;;5012283;28;20258;-80
2021/08/01 05:13:49;;;;;;;4.65;4.18;;;22.50;61.70;;;;;;5028816;28;20163;-80
2021/08/01 05:16:22;;;;;;;5.35;4.63;;;22.50;62.70;;;;;;5011542;28;20250;-80
2021/08/01 05:18:48;;;;;;;4.72;4.28;;;22.50;61.80;;;;;;5080619;28;20225;-80
2021/08/01 05:21:19;;;;;;;5.13;4.32;;;22.60;61.80;;;;;;5028259;28;20171;-80
2021/08/01 05:23:46;;;;;;;4.95;4.45;;;22.50;61.80;;;;;;5012021;28;20243;-80
2021/08/01 05:26:16;;;;;;;4.90;4.40;;;22.50;61.80;;;;;;5028161;28;20167;-80
2021/08/01 05:28:42;;;;;;;5.07;4.57;;;22.50;61.90;;;;;;5012816;28;20231;-79
2021/08/01 05:31:12;;;;;;;4.97;4.47;;;22.50;61.90;;;;;;4995868;28;20259;-80
2021/08/01 05:33:39;;;;;;;4.85;4.35;;;22.50;62.00;;;;;;5028802;28;20150;-79
2021/08/01 05:36:09;;;;;;;4.68;4.25;;;22.50;61.90;;;;;;5027727;28;20147;-79
2021/08/01 05:38:35;;;;;;;4.97;4.47;;;22.50;61.90;;;;;;5012417;28;20214;-79
2021/08/01 05:41:02;;;;;;;4.78;4.32;;;22.50;62.00;;;;;;5012248;28;20179;-81
2021/08/01 05:43:34;;;;;;;4.50;4.10;;;22.50;61.90;;;;;;5011988;28;20194;-80
2021/08/01 05:46:01;;;;;;;5.47;4.70;;;22.50;61.90;;;;;;5028548;28;20595;-80
2021/08/01 05:48:28;;;;;;;4.88;4.43;;;22.50;61.90;;;;;;5028453;28;20151;-81
2021/08/01 05:50:57;;;;;;;4.40;4.00;;;22.50;61.90;;;;;;5028645;28;20197;-80
2021/08/01 05:53:27;;;;;;;4.95;4.45;;;22.60;62.00;;;;;;4993107;28;20216;-80
2021/08/01 05:55:55;;;;;;;4.57;4.18;;;22.60;62.00;;;;;;5078813;28;20197;-80
2021/08/01 05:58:25;;;;;;;4.63;4.18;;;22.50;61.90;;;;;;5011459;28;20219;-80
2021/08/01 06:00:55;;;;;;;4.90;4.30;;;22.50;61.90;;;;;;5011240;28;20179;-80
2021/08/01 06:03:22;;;;;;;4.75;4.25;;;22.60;61.90;;;;;;5011490;28;20182;-80
2021/08/01 06:05:50;;;;;;;4.82;4.25;;;22.50;61.80;;;;;;4994022;28;20179;-80
2021/08/01 06:08:18;;;;;;;5.00;4.50;;;22.60;61.90;;;;;;5079397;28;20601;-80
2021/08/01 06:10:49;;;;;;;5.93;4.45;;;22.60;61.80;;;;;;5062529;28;20183;-80
2021/08/01 06:13:16;;;;;;;4.95;4.47;;;22.50;61.80;;;;;;4994534;28;20174;-80
2021/08/01 06:15:44;;;;;;;5.10;4.60;;;22.50;61.80;;;;;;4994475;28;20186;-80
2021/08/01 06:18:11;;;;;;;4.80;4.40;;;22.50;61.90;;;;;;5027220;28;20217;-80
2021/08/01 06:20:37;;;;;;;5.18;4.68;;;22.60;61.90;;;;;;5078630;28;20179;-80
2021/08/01 06:23:02;;;;;;;4.60;4.20;;;22.50;61.80;;;;;;5012081;28;20238;-80
2021/08/01 06:25:28;;;;;;;4.70;4.30;;;22.60;61.80;;;;;;5011812;28;20188;-79
2021/08/01 06:27:54;;;;;;;5.10;4.60;;;22.50;61.80;;;;;;5011745;28;20247;-80
2021/08/01 06:30:22;;;;;;;4.63;4.20;;;22.60;61.90;;;;;;5028103;28;20169;-80
2021/08/01 06:32:52;;;;;;;4.78;4.28;;;22.50;61.80;;;;;;5010799;28;20194;-80
2021/08/01 06:35:21;;;;;;;4.70;4.20;;;22.60;61.80;;;;;;5010480;28;20179;-80
2021/08/01 06:37:52;;;;;;;4.60;4.20;;;22.60;61.80;;;;;;4993845;28;20207;-80
2021/08/01 06:40:20;;;;;;;4.43;4.03;;;22.50;61.90;;;;;;5009967;28;20202;-80
2021/08/01 06:42:51;;;;;;;5.35;4.57;;;22.50;61.90;;;;;;4994153;28;20186;-80
2021/08/01 06:45:19;;;;;;;4.60;4.20;;;22.60;61.90;;;;;;5010008;28;20185;-80
2021/08/01 06:47:46;;;;;;;5.30;4.80;;;22.50;61.80;;;;;;5010404;28;20182;-80
2021/08/01 06:50:13;;;;;;;5.07;4.57;;;22.50;61.80;;;;;;5009796;28;20612;-80
2021/08/01 06:52:43;;;;;;;5.32;4.82;;;22.50;61.80;;;;;;5009974;28;20183;-80
2021/08/01 06:55:10;;;;;;;5.00;4.50;;;22.50;61.90;;;;;;5009395;28;20195;-80
2021/08/01 06:57:39;;;;;;;5.18;4.68;;;22.60;62.00;;;;;;5043904;28;20187;-80
2021/08/01 07:00:10;;;;;;;4.55;4.15;;;22.60;62.00;;;;;;5010161;28;20233;-80
2021/08/01 07:02:39;;;;;;;4.70;4.30;;;22.50;62.00;;;;;;5010114;28;20232;-80
2021/08/01 07:05:11;;;;;;;4.90;4.40;;;22.50;61.80;;;;;;5009651;28;20240;-80
2021/08/01 07:07:37;;;;;;;4.93;4.43;;;22.50;62.00;;;;;;5005747;28;20218;-80
2021/08/01 07:10:06;;;;;;;5.05;4.20;;;22.50;62.00;;;;;;4991238;28;20186;-80
2021/08/01 07:12:41;;;;;;;5.07;4.57;;;22.60;62.00;;;;;;4990394;28;20256;-79
2021/08/01 07:15:15;;;;;;;5.05;4.47;;;22.60;61.90;;;;;;5007016;28;20197;-80
2021/08/01 07:17:45;;;;;;;5.22;4.72;;;22.50;61.90;;;;;;4990754;28;20194;-80
2021/08/01 07:20:14;;;;;;;4.75;4.32;;;22.50;61.80;;;;;;4990414;28;20209;-81
2021/08/01 07:22:44;;;;;;;4.65;4.25;;;22.60;61.90;;;;;;5074581;28;20184;-80
2021/08/01 07:25:13;;;;;;;4.75;4.25;;;22.50;61.80;;;;;;4974345;28;20187;-79
2021/08/01 07:27:41;;;;;;;4.80;4.30;;;22.50;61.80;;;;;;4989943;28;20203;-80
2021/08/01 07:30:10;;;;;;;4.78;4.22;;;22.50;62.70;;;;;;5074549;28;20255;-79
2021/08/01 07:32:38;;;;;;;4.78;4.30;;;22.60;61.90;;;;;;5006372;28;20207;-80
2021/08/01 07:35:14;;;;;;;4.68;4.22;;;22.50;61.90;;;;;;4990010;28;20179;-80
2021/08/01 07:37:42;;;;;;;4.53;4.13;;;22.50;61.90;;;;;;4990491;28;20210;-79
2021/08/01 07:40:14;;;;;;;5.00;4.50;;;22.50;61.90;;;;;;5074840;28;20191;-79
2021/08/01 07:42:42;;;;;;;4.90;4.50;;;22.60;61.90;;;;;;4973199;28;20183;-79
2021/08/01 07:45:44;;;;;;;4.60;4.20;;;22.60;61.90;;;;;;4973533;28;20516;-79
2021/08/01 07:48:03;;;;;;;5.25;4.55;;;22.60;61.80;;;;;;5009565;28;20179;-79
2021/08/01 07:50:36;;;;;;;4.95;4.45;;;22.60;61.80;;;;;;5022167;28;20685;-79
2021/08/01 07:53:04;;;;;;;4.82;4.38;;;22.60;61.80;;;;;;5005206;28;20184;-79
2021/08/01 07:55:33;;;;;;;4.85;4.43;;;22.60;61.70;;;;;;4973659;28;20187;-79
2021/08/01 07:58:01;;;;;;;4.78;4.38;;;22.60;61.70;;;;;;4973504;28;20220;-79
2021/08/01 08:00:29;;;;;;;4.65;4.25;;;22.60;61.70;;;;;;5006157;28;20183;-80
2021/08/01 08:02:55;;;;;;;4.93;4.43;;;22.60;61.70;;;;;;4990555;28;20159;-79
2021/08/01 08:05:23;;;;;;;4.88;4.38;;;22.60;61.70;;;;;;5006586;28;20189;-79
2021/08/01 08:07:49;;;;;;;4.75;4.30;;;22.70;61.60;;;;;;5013794;28;20257;-79
2021/08/01 08:10:17;;;;;;;4.82;4.20;;;22.60;61.50;;;;;;5023725;28;20175;-79
2021/08/01 08:12:46;;;;;;;4.85;4.38;;;22.60;61.60;;;;;;5005572;28;20183;-79
2021/08/01 08:15:17;;;;;;;5.07;4.53;;;22.60;61.70;;;;;;4989451;28;20253;-79
2021/08/01 08:17:44;;;;;;;4.70;4.30;;;22.60;61.60;;;;;;5004770;28;20218;-79
2021/08/01 08:20:13;;;;;;;4.85;4.45;;;22.60;61.50;;;;;;5004994;28;20191;-79
2021/08/01 08:22:43;;;;;;;5.00;4.50;;;22.70;61.60;;;;;;5006982;28;20205;-79
2021/08/01 08:25:10;;;;;;;5.00;4.50;;;22.60;61.50;;;;;;5073997;28;20224;-79
2021/08/01 08:27:36;;;;;;;4.97;4.40;;;22.60;61.50;;;;;;5006350;28;20170;-80
2021/08/01 08:30:04;;;;;;;4.50;4.10;;;22.60;61.40;;;;;;5023028;28;20223;-79
2021/08/01 08:32:33;;;;;;;4.90;4.40;;;22.70;61.50;;;;;;5022599;28;20205;-79
2021/08/01 08:35:04;;;;;;;4.55;4.15;;;22.70;61.40;;;;;;5022761;28;20183;-80
2021/08/01 08:37:45;;;;;;;4.75;4.25;;;22.70;61.50;;;;;;4989316;28;20203;-79
2021/08/01 08:40:13;;;;;;;5.20;4.70;;;22.70;61.50;;;;;;4989711;28;20250;-79
2021/08/01 08:42:40;;;;;;;4.90;4.40;;;22.70;61.40;;;;;;5023449;28;20156;-79
2021/08/01 08:45:06;;;;;;;4.80;4.30;;;22.70;61.50;;;;;;5005861;28;20179;-78
2021/08/01 08:47:36;;;;;;;4.80;4.40;;;22.70;61.50;;;;;;5006291;28;20179;-79
2021/08/01 08:50:03;;;;;;;4.75;4.25;;;22.60;61.50;;;;;;5022167;28;20167;-79
2021/08/01 08:52:33;;;;;;;5.13;4.63;;;22.60;61.40;;;;;;5006060;28;20231;-79
2021/08/01 08:55:04;;;;;;;5.00;4.50;;;22.70;61.40;;;;;;4972264;28;20256;-79
2021/08/01 08:57:37;;;;;;;4.45;4.05;;;22.70;61.40;;;;;;4989071;28;20616;-80
2021/08/01 09:00:11;;;;;;;4.47;4.07;;;22.70;61.40;;;;;;4989145;28;20585;-79
2021/08/01 09:02:42;;;;;;;4.88;4.38;;;22.70;61.40;;;;;;5056688;28;20270;-79
2021/08/01 09:05:12;;;;;;;4.75;4.35;;;22.70;61.40;;;;;;5005168;28;20204;-79
2021/08/01 09:07:39;;;;;;;5.32;4.82;;;22.70;61.20;;;;;;4969021;28;20257;-79
2021/08/01 09:10:11;;;;;;;5.10;4.60;;;22.70;61.30;;;;;;4985622;28;20267;-79
2021/08/01 09:12:43;;;;;;;4.82;4.10;;;22.70;61.30;;;;;;5052645;28;20623;-80
2021/08/01 09:15:18;;;;;;;4.75;4.25;;;22.80;61.40;;;;;;5069858;28;20188;-79
2021/08/01 09:17:44;;;;;;;4.88;4.40;;;22.80;61.20;;;;;;5068382;28;20218;-79
2021/08/01 09:20:25;;;;;;;5.05;4.53;;;22.80;61.10;;;;;;5002094;28;20168;-79
2021/08/01 09:23:07;;;;;;;4.65;4.13;;;22.80;61.10;;;;;;5049839;28;20180;-79
2021/08/01 09:25:39;;;;;;;4.60;4.20;;;22.80;61.10;;;;;;5052685;28;20274;-79
2021/08/01 09:28:21;;;;;;;4.75;4.30;;;22.80;61.10;;;;;;5054128;28;20196;-79
2021/08/01 09:30:55;;;;;;;4.90;4.40;;;22.80;61.10;;;;;;5005837;28;20153;-79
2021/08/01 09:33:42;;;;;;;4.90;4.40;;;22.80;61.00;;;;;;5071796;28;20651;-79
2021/08/01 09:36:16;;;;;;;4.72;4.32;;;22.80;61.00;;;;;;5056667;28;20195;-79
2021/08/01 09:38:47;;;;;;;5.05;4.55;;;22.80;61.00;;;;;;5006885;28;20230;-79
2021/08/01 09:41:37;;;;;;;5.03;4.53;;;22.80;61.00;;;;;;5005005;28;20273;-80
2021/08/01 09:44:07;;;;;;;4.40;4.00;;;22.80;61.10;;;;;;5069459;28;20172;-80
2021/08/01 09:46:45;;;;;;;5.10;4.60;;;22.80;61.10;;;;;;5056160;28;20629;-79
2021/08/01 09:49:20;;;;;;;5.38;4.88;;;22.80;61.10;;;;;;5071693;28;20184;-79
2021/08/01 09:51:52;;;;;;;4.30;3.90;;;22.80;61.10;;;;;;5005320;28;20239;-79
2021/08/01 09:54:19;;;;;;;5.00;4.50;;;22.80;61.10;;;;;;5055190;28;20180;-79
2021/08/01 09:57:00;;;;;;;5.07;4.57;;;22.80;61.00;;;;;;4972908;28;20175;-79
2021/08/01 09:59:30;;;;;;;5.15;4.65;;;22.80;60.80;;;;;;5006042;28;20184;-79
2021/08/01 10:01:58;;;;;;;5.20;4.70;;;22.80;60.80;;;;;;5072933;28;20832;-79
2021/08/01 10:04:28;;;;;;;5.82;4.28;;;22.80;61.00;;;;;;5005384;28;20204;-79
2021/08/01 10:07:02;;;;;;;4.88;4.38;;;22.80;61.00;;;;;;5077357;28;20218;-79
2021/08/01 10:09:36;;;;;;;4.80;4.32;;;22.90;60.90;;;;;;5028352;28;20249;-80
2021/08/01 10:12:08;;;;;;;5.00;4.50;;;22.90;60.80;;;;;;4994223;28;20654;-79
2021/08/01 10:14:43;;;;;;;4.97;4.47;;;22.90;60.90;;;;;;5027472;28;20204;-79
2021/08/01 10:17:10;;;;;;;5.63;4.68;;;22.90;60.70;;;;;;5010085;28;20235;-79
2021/08/01 10:19:40;;;;;;;5.22;4.72;;;22.90;60.60;;;;;;4994411;28;20193;-79
2021/08/01 10:22:11;;;;;;;5.53;4.85;;;22.90;60.60;;;;;;5061866;28;20186;-79
2021/08/01 10:24:45;;;;;;;5.53;5.03;;;22.90;60.70;;;;;;5062183;28;20182;-79
2021/08/01 10:27:16;;;;;;;5.32;4.63;;;22.90;60.60;;;;;;5011638;28;20187;-79
2021/08/01 10:29:47;;;;;;;5.32;4.82;;;22.90;60.70;;;;;;5010717;28;20277;-79
2021/08/01 10:32:20;;;;;;;5.65;5.15;;;22.90;60.50;;;;;;5045168;28;20215;-79
2021/08/01 10:35:01;;;;;;;5.38;4.88;;;22.90;60.60;;;;;;4994937;28;20178;-79
2021/08/01 10:37:31;;;;;;;5.20;4.60;;;22.90;60.60;;;;;;5011208;28;20202;-79
2021/08/01 10:39:58;;;;;;;5.32;4.82;;;22.90;61.40;;;;;;4994166;28;20211;-79
2021/08/01 10:42:27;;;;;;;5.20;4.68;;;22.90;60.70;;;;;;5062539;28;20179;-79
2021/08/01 10:44:54;;;;;;;5.40;4.90;;;22.90;61.40;;;;;;5026812;28;20155;-79
2021/08/01 10:47:20;;;;;;;5.55;5.05;;;22.90;60.60;;;;;;5027027;28;20158;-80
2021/08/01 10:49:53;;;;;;;5.80;4.82;;;22.80;60.50;;;;;;5027987;28;20220;-79
2021/08/01 10:52:19;;;;;;;5.38;4.88;;;22.90;60.60;;;;;;5095624;28;20183;-79
2021/08/01 10:55:01;;;;;;;5.60;5.00;;;22.80;60.50;;;;;;5010601;28;20170;-80
2021/08/01 10:57:28;;;;;;;5.43;4.93;;;22.90;60.60;;;;;;5026920;28;20202;-79
2021/08/01 11:00:02;;;;;;;5.63;5.05;;;23.00;60.50;;;;;;5027108;28;20208;-79
2021/08/01 11:02:32;;;;;;;5.53;5.03;;;22.90;60.50;;;;;;5009799;28;20676;-79
2021/08/01 11:05:21;;;;;;;5.60;5.10;;;22.90;60.50;;;;;;4993902;28;20170;-79
2021/08/01 11:08:04;;;;;;;5.15;4.65;;;22.90;61.40;;;;;;5086838;28;20673;-79
2021/08/01 11:10:34;;;;;;;5.10;4.60;;;22.90;60.40;;;;;;5011161;28;20633;-79
2021/08/01 11:13:15;;;;;;;7.05;4.85;;;22.90;60.40;;;;;;5061165;28;20259;-80
2021/08/01 11:15:46;;;;;;;5.90;5.30;;;22.90;60.30;;;;;;5012882;28;20265;-79
2021/08/01 11:18:32;;;;;;;5.35;4.85;;;22.90;60.30;;;;;;4993435;28;20677;-79
2021/08/01 11:21:04;;;;;;;5.40;4.90;;;22.90;60.30;;;;;;4995482;28;20270;-79
2021/08/01 11:24:06;;;;;;;5.60;4.82;;;22.90;60.30;;;;;;5009928;28;20179;-79
2021/08/01 11:27:12;;;;;;;6.07;4.97;;;22.90;60.10;;;;;;4996441;28;20194;-79
2021/08/01 11:29:55;;;;;;;6.05;5.15;;;22.90;60.20;;;;;;5026760;28;20155;-79
2021/08/01 11:32:26;;;;;;;5.75;5.15;;;22.90;60.30;;;;;;5010768;28;20175;-79
2021/08/01 11:35:16;;;;;;;5.18;4.68;;;22.90;60.30;;;;;;5060982;28;20182;-79
2021/08/01 11:37:44;;;;;;;5.43;4.90;;;22.90;60.30;;;;;;5026523;28;20208;-79
2021/08/01 11:40:15;;;;;;;5.28;4.78;;;22.90;60.30;;;;;;5077837;28;20202;-79
2021/08/01 11:42:43;;;;;;;5.03;4.53;;;22.90;60.20;;;;;;5009486;28;20179;-80
2021/08/01 11:45:13;;;;;;;5.47;4.97;;;22.90;60.20;;;;;;5060730;28;20255;-79
2021/08/01 11:47:45;;;;;;;6.57;5.20;;;22.90;60.20;;;;;;5077220;28;20190;-79
2021/08/01 11:50:14;;;;;;;5.03;4.50;;;22.80;60.20;;;;;;4993117;28;20208;-79
2021/08/01 11:52:44;;;;;;;5.30;4.80;;;22.90;60.10;;;;;;5007925;28;20179;-80
2021/08/01 11:55:16;;;;;;;5.93;5.05;;;22.90;59.80;;;;;;5009223;28;20198;-80
2021/08/01 11:57:50;;;;;;;5.85;5.10;;;22.90;59.70;;;;;;5093770;28;20235;-79
2021/08/01 12:00:28;;;;;;;5.97;5.30;;;22.90;59.90;;;;;;5077506;28;20186;-79
2021/08/01 12:02:59;;;;;;;6.65;5.35;;;22.90;60.00;;;;;;4992896;28;20185;-79
2021/08/01 12:05:41;;;;;;;5.50;5.00;;;22.90;60.00;;;;;;4992985;28;20227;-79
2021/08/01 12:08:30;;;;;;;5.82;5.30;;;22.90;60.00;;;;;;5025881;28;20218;-80
2021/08/01 12:11:09;;;;;;;5.68;5.10;;;22.90;59.90;;;;;;5026263;28;20636;-80
2021/08/01 12:13:38;;;;;;;5.30;4.80;;;22.90;59.70;;;;;;5026617;28;20167;-79
2021/08/01 12:16:19;;;;;;;5.95;5.10;;;22.90;59.70;;;;;;5076720;28;20532;-79
2021/08/01 12:18:51;;;;;;;5.50;4.97;;;23.00;59.80;;;;;;5009274;28;20190;-79
2021/08/01 12:21:30;;;;;;;5.57;5.00;;;23.00;59.70;;;;;;4992117;28;20203;-78
2021/08/01 12:24:01;;;;;;;6.15;5.10;;;23.00;59.60;;;;;;5025867;28;20565;-79
2021/08/01 12:26:39;;;;;;;7.47;5.20;;;23.00;60.50;;;;;;4992316;28;20186;-79
2021/08/01 12:29:07;;;;;;;5.50;5.00;;;23.00;59.60;;;;;;5008518;28;20182;-79
2021/08/01 12:31:35;;;;;;;6.53;5.07;;;23.00;59.60;;;;;;5007966;28;20254;-79
2021/08/01 12:34:05;;;;;;;5.93;5.32;;;23.00;59.50;;;;;;5007251;28;20191;-80
2021/08/01 12:36:33;;;;;;;5.50;5.00;;;23.00;59.40;;;;;;4991399;28;20208;-80
2021/08/01 12:39:06;;;;;;;5.50;5.00;;;23.00;59.30;;;;;;5059146;28;20225;-79
2021/08/01 12:41:34;;;;;;;5.82;5.30;;;23.10;59.30;;;;;;5092223;28;20182;-79
2021/08/01 12:44:13;;;;;;;6.13;5.35;;;23.10;59.10;;;;;;4990576;28;20187;-79
2021/08/01 12:46:41;;;;;;;6.25;5.22;;;23.00;59.20;;;;;;5058527;28;20273;-79
2021/08/01 12:49:09;;;;;;;7.68;5.20;;;23.00;58.80;;;;;;5007217;28;20187;-79
2021/08/01 12:51:39;;;;;;;5.85;4.70;;;23.00;58.70;;;;;;5006781;28;20179;-79
2021/08/01 12:54:09;;;;;;;6.43;5.43;;;23.00;58.80;;;;;;5008543;28;20204;-79
2021/08/01 12:57:00;;;;;;;5.60;5.03;;;23.00;58.90;;;;;;5008698;28;20565;-79
2021/08/01 12:59:28;;;;;;;7.28;4.97;;;23.00;58.90;;;;;;4980738;28;20201;-80
2021/08/01 13:01:54;;;;;;;5.55;5.00;;;23.00;59.00;;;;;;5076265;28;20193;-79
2021/08/01 13:04:21;;;;;;;5.95;5.35;;;23.00;59.90;;;;;;4994367;28;20620;-79
2021/08/01 13:06:47;;;;;;;6.57;5.07;;;23.00;58.90;;;;;;5010587;28;20193;-79